createdAt,value
2024-03-12T00:00:51.502Z,53.98
2024-03-12T00:01:51.444Z,54.62
2024-03-12T00:02:51.320Z,63.81
2024-03-12T00:03:51.337Z,53.17
2024-03-12T00:04:51.305Z,53.17
2024-03-12T00:05:51.296Z,61.23
2024-03-12T00:06:51.393Z,62.84
2024-03-12T00:07:51.285Z,50.60
2024-03-12T00:08:51.244Z,53.50
2024-03-12T00:09:51.284Z,54.95
2024-03-12T00:10:51.274Z,52.53
2024-03-12T00:11:51.237Z,53.50
2024-03-12T00:12:51.312Z,65.10
2024-03-12T00:13:51.224Z,56.07
2024-03-12T00:14:51.183Z,53.33
2024-03-12T00:15:51.325Z,55.43
2024-03-12T00:16:51.181Z,53.17
2024-03-12T00:17:51.248Z,52.69
2024-03-12T00:18:51.250Z,62.52
2024-03-12T00:19:51.139Z,52.53
2024-03-12T00:20:51.122Z,64.94
2024-03-12T00:21:51.229Z,65.90
2024-03-12T00:22:51.098Z,63.97
2024-03-12T00:23:51.117Z,64.45
2024-03-12T00:24:51.182Z,63.33
2024-03-12T00:25:51.069Z,53.50
2024-03-12T00:26:51.084Z,55.11
2024-03-12T00:27:51.080Z,61.07
2024-03-12T00:28:51.044Z,59.46
2024-03-12T00:29:51.054Z,66.39
2024-03-12T00:30:51.094Z,67.35
2024-03-12T00:31:51.051Z,54.46
2024-03-12T00:32:51.024Z,56.56
2024-03-12T00:33:51.040Z,63.97
2024-03-12T00:34:51.040Z,53.33
2024-03-12T00:35:50.986Z,61.55
2024-03-12T00:36:51.021Z,54.46
2024-03-12T00:37:50.955Z,60.42
2024-03-12T00:38:50.933Z,61.87
2024-03-12T00:39:50.967Z,62.20
2024-03-12T00:40:51.032Z,57.20
2024-03-12T00:41:51.001Z,63.33
2024-03-12T00:42:50.938Z,54.14
2024-03-12T00:43:50.933Z,55.59
2024-03-12T00:44:50.897Z,55.43
2024-03-12T00:45:50.959Z,50.92
2024-03-12T00:46:50.859Z,48.98
2024-03-12T00:47:50.918Z,50.76
2024-03-12T00:48:50.889Z,54.95
2024-03-12T00:49:50.852Z,51.72
2024-03-12T00:50:50.856Z,58.81
2024-03-12T00:51:50.864Z,53.66
2024-03-12T00:52:51.773Z,52.05
2024-03-12T00:53:50.783Z,52.69
2024-03-12T00:54:50.786Z,57.85
2024-03-12T00:55:50.868Z,57.20
2024-03-12T00:56:50.832Z,54.95
2024-03-12T00:57:50.780Z,50.11
2024-03-12T00:58:50.782Z,58.49
2024-03-12T00:59:50.725Z,51.08
2024-03-12T01:00:51.176Z,52.37
2024-03-12T01:01:50.714Z,54.14
2024-03-12T01:02:50.842Z,50.60
2024-03-12T01:03:50.737Z,55.27
2024-03-12T01:04:50.635Z,54.62
2024-03-12T01:05:50.642Z,56.40
2024-03-12T01:06:50.663Z,51.40
2024-03-12T01:07:50.625Z,49.47
2024-03-12T01:08:50.628Z,54.62
2024-03-12T01:09:50.623Z,50.92
2024-03-12T01:10:50.585Z,49.31
2024-03-12T01:11:50.595Z,63.16
2024-03-12T01:12:50.614Z,48.66
2024-03-12T01:13:50.558Z,49.15
2024-03-12T01:14:51.549Z,50.76
2024-03-12T01:15:50.581Z,52.85
2024-03-12T01:16:50.514Z,50.92
2024-03-12T01:17:50.583Z,59.30
2024-03-12T01:18:50.501Z,53.82
2024-03-12T01:19:50.523Z,49.63
2024-03-12T01:20:50.532Z,55.75
2024-03-12T01:21:50.567Z,50.92
2024-03-12T01:22:50.486Z,54.46
2024-03-12T01:23:51.074Z,52.21
2024-03-12T01:24:50.508Z,50.43
2024-03-12T01:25:50.451Z,54.30
2024-03-12T01:26:50.431Z,57.85
2024-03-12T01:27:50.532Z,53.01
2024-03-12T01:28:50.410Z,51.88
2024-03-12T01:29:50.406Z,52.21
2024-03-12T01:30:50.436Z,57.52
2024-03-12T01:31:50.402Z,49.95
2024-03-12T01:32:50.393Z,60.42
2024-03-12T01:33:50.403Z,66.55
2024-03-12T01:34:50.380Z,57.36
2024-03-12T01:35:50.370Z,58.01
2024-03-12T01:36:50.388Z,64.45
2024-03-12T01:37:50.323Z,63.49
2024-03-12T01:38:50.291Z,49.63
2024-03-12T01:39:50.308Z,46.57
2024-03-12T01:40:50.279Z,50.60
2024-03-12T01:41:50.226Z,47.86
2024-03-12T01:42:51.359Z,57.36
2024-03-12T01:43:50.223Z,52.37
2024-03-12T01:44:50.225Z,58.01
2024-03-12T01:45:50.263Z,47.53
2024-03-12T01:46:50.278Z,57.69
2024-03-12T01:47:50.266Z,52.69
2024-03-12T01:48:50.206Z,58.65
2024-03-12T01:49:50.157Z,63.81
2024-03-12T01:50:50.174Z,64.61
2024-03-12T01:51:50.237Z,59.62
2024-03-12T01:52:50.159Z,58.49
2024-03-12T01:53:50.165Z,50.60
2024-03-12T01:54:50.191Z,46.41
2024-03-12T01:55:50.115Z,48.18
2024-03-12T01:56:50.094Z,48.98
2024-03-12T01:57:50.119Z,49.47
2024-03-12T01:58:50.075Z,61.07
2024-03-12T01:59:50.042Z,61.71
2024-03-12T02:00:51.144Z,65.26
2024-03-12T02:01:50.088Z,49.47
2024-03-12T02:02:50.045Z,56.72
2024-03-12T02:03:50.092Z,48.18
2024-03-12T02:04:49.988Z,51.88
2024-03-12T02:05:50.012Z,60.10
2024-03-12T02:06:50.066Z,51.88
2024-03-12T02:07:49.969Z,59.78
2024-03-12T02:08:49.962Z,61.23
2024-03-12T02:09:50.010Z,62.20
2024-03-12T02:10:49.957Z,63.00
2024-03-12T02:11:49.934Z,53.50
2024-03-12T02:12:50.249Z,60.75
2024-03-12T02:13:50.915Z,58.81
2024-03-12T02:14:49.936Z,63.97
2024-03-12T02:15:49.974Z,58.01
2024-03-12T02:16:49.896Z,60.59
2024-03-12T02:17:49.922Z,51.24
2024-03-12T02:18:49.886Z,63.16
2024-03-12T02:19:49.869Z,63.33
2024-03-12T02:20:49.861Z,66.39
2024-03-12T02:21:49.884Z,65.26
2024-03-12T02:22:49.842Z,52.37
2024-03-12T02:23:49.815Z,60.91
2024-03-12T02:24:49.814Z,64.78
2024-03-12T02:25:49.800Z,56.40
2024-03-12T02:26:49.781Z,61.07
2024-03-12T02:27:49.844Z,55.11
2024-03-12T02:28:49.765Z,60.91
2024-03-12T02:29:49.747Z,53.82
2024-03-12T02:30:49.899Z,56.56
2024-03-12T02:31:49.768Z,57.20
2024-03-12T02:32:50.250Z,61.07
2024-03-12T02:33:49.753Z,68.16
2024-03-12T02:34:49.703Z,61.71
2024-03-12T02:35:49.647Z,57.69
2024-03-12T02:36:49.700Z,65.26
2024-03-12T02:37:49.715Z,52.05
2024-03-12T02:38:49.631Z,57.20
2024-03-12T02:39:49.715Z,60.26
2024-03-12T02:40:49.651Z,67.19
2024-03-12T02:41:49.631Z,61.07
2024-03-12T02:42:49.681Z,49.31
2024-03-12T02:43:49.589Z,67.51
2024-03-12T02:44:49.587Z,62.36
2024-03-12T02:45:49.571Z,62.52
2024-03-12T02:46:49.550Z,61.23
2024-03-12T02:47:49.640Z,49.47
2024-03-12T02:48:49.567Z,49.31
2024-03-12T02:49:49.534Z,56.24
2024-03-12T02:50:49.509Z,63.81
2024-03-12T02:51:49.510Z,61.55
2024-03-12T02:52:49.501Z,55.11
2024-03-12T02:53:49.502Z,53.33
2024-03-12T02:54:50.520Z,66.87
2024-03-12T02:55:49.437Z,48.98
2024-03-12T02:56:49.673Z,50.43
2024-03-12T02:57:49.475Z,55.75
2024-03-12T02:58:49.444Z,51.88
2024-03-12T02:59:49.433Z,62.84
2024-03-12T03:00:49.523Z,49.47
2024-03-12T03:01:49.443Z,54.46
2024-03-12T03:02:49.377Z,48.18
2024-03-12T03:03:49.418Z,48.34
2024-03-12T03:04:50.093Z,55.11
2024-03-12T03:05:49.352Z,49.15
2024-03-12T03:06:49.378Z,49.79
2024-03-12T03:07:49.391Z,49.63
2024-03-12T03:08:49.350Z,60.10
2024-03-12T03:09:49.367Z,60.42
2024-03-12T03:10:49.366Z,63.33
2024-03-12T03:11:49.299Z,58.97
2024-03-12T03:12:50.178Z,53.33
2024-03-12T03:13:49.260Z,52.53
2024-03-12T03:14:49.244Z,62.36
2024-03-12T03:15:49.318Z,62.68
2024-03-12T03:16:49.252Z,64.13
2024-03-12T03:17:49.251Z,58.81
2024-03-12T03:18:49.270Z,61.55
2024-03-12T03:19:49.210Z,52.37
2024-03-12T03:20:49.195Z,60.59
2024-03-12T03:21:49.217Z,62.36
2024-03-12T03:22:49.197Z,67.84
2024-03-12T03:23:49.193Z,54.46
2024-03-12T03:24:49.169Z,64.78
2024-03-12T03:25:49.142Z,62.20
2024-03-12T03:26:49.117Z,62.04
2024-03-12T03:27:49.159Z,66.71
2024-03-12T03:28:49.101Z,61.71
2024-03-12T03:29:49.096Z,58.81
2024-03-12T03:30:49.151Z,57.20
2024-03-12T03:31:49.074Z,64.94
2024-03-12T03:32:49.458Z,52.69
2024-03-12T03:33:49.185Z,51.40
2024-03-12T03:34:49.026Z,67.84
2024-03-12T03:35:49.021Z,66.06
2024-03-12T03:36:49.126Z,68.00
2024-03-12T03:37:49.038Z,60.10
2024-03-12T03:38:49.016Z,54.95
2024-03-12T03:39:49.091Z,60.75
2024-03-12T03:40:49.006Z,66.39
2024-03-12T03:41:48.989Z,64.29
2024-03-12T03:42:49.009Z,65.90
2024-03-12T03:43:48.977Z,58.49
2024-03-12T03:44:48.954Z,64.61
2024-03-12T03:45:49.020Z,69.29
2024-03-12T03:46:48.890Z,63.81
2024-03-12T03:47:49.503Z,54.30
2024-03-12T03:48:48.908Z,52.37
2024-03-12T03:49:48.855Z,66.87
2024-03-12T03:50:48.862Z,59.30
2024-03-12T03:51:48.850Z,63.65
2024-03-12T03:52:48.830Z,56.40
2024-03-12T03:53:48.834Z,60.42
2024-03-12T03:54:48.836Z,69.13
2024-03-12T03:55:48.801Z,57.20
2024-03-12T03:56:48.800Z,60.91
2024-03-12T03:57:48.927Z,64.29
2024-03-12T03:58:48.805Z,67.68
2024-03-12T03:59:48.773Z,66.55
2024-03-12T04:00:48.795Z,72.03
2024-03-12T04:01:48.760Z,68.64
2024-03-12T04:02:48.742Z,65.10
2024-03-12T04:03:48.831Z,64.45
2024-03-12T04:04:48.706Z,60.75
2024-03-12T04:05:48.695Z,67.19
2024-03-12T04:06:50.364Z,61.39
2024-03-12T04:07:48.665Z,66.55
2024-03-12T04:08:48.688Z,66.55
2024-03-12T04:09:48.724Z,68.16
2024-03-12T04:10:48.754Z,68.16
2024-03-12T04:11:48.658Z,67.84
2024-03-12T04:12:48.736Z,65.74
2024-03-12T04:13:48.591Z,66.55
2024-03-12T04:14:48.586Z,68.80
2024-03-12T04:15:48.648Z,65.42
2024-03-12T04:16:48.590Z,68.00
2024-03-12T04:17:48.671Z,62.04
2024-03-12T04:18:48.606Z,64.78
2024-03-12T04:19:48.564Z,68.32
2024-03-12T04:20:48.544Z,69.93
2024-03-12T04:21:48.586Z,70.42
2024-03-12T04:22:48.512Z,70.74
2024-03-12T04:23:48.493Z,68.80
2024-03-12T04:24:48.559Z,68.48
2024-03-12T04:25:48.490Z,71.22
2024-03-12T04:26:48.472Z,71.06
2024-03-12T04:27:48.502Z,68.16
2024-03-12T04:28:48.450Z,70.58
2024-03-12T04:29:48.466Z,71.70
2024-03-12T04:30:48.482Z,72.03
2024-03-12T04:31:48.431Z,68.16
2024-03-12T04:32:48.690Z,70.25
2024-03-12T04:33:48.472Z,71.70
2024-03-12T04:34:48.370Z,70.58
2024-03-12T04:35:48.375Z,70.58
2024-03-12T04:36:48.403Z,70.74
2024-03-12T04:37:48.416Z,73.80
2024-03-12T04:38:48.373Z,72.19
2024-03-12T04:39:48.515Z,71.38
2024-03-12T04:40:48.310Z,71.22
2024-03-12T04:41:48.333Z,70.09
2024-03-12T04:42:48.371Z,70.90
2024-03-12T04:43:48.297Z,70.09
2024-03-12T04:44:48.311Z,72.51
2024-03-12T04:45:48.328Z,69.13
2024-03-12T04:46:48.274Z,70.25
2024-03-12T04:47:50.177Z,74.44
2024-03-12T04:48:48.268Z,75.09
2024-03-12T04:49:48.239Z,68.64
2024-03-12T04:50:48.215Z,70.74
2024-03-12T04:51:48.233Z,69.93
2024-03-12T04:52:48.204Z,68.96
2024-03-12T04:53:48.211Z,72.51
2024-03-12T04:54:48.235Z,70.74
2024-03-12T04:55:48.171Z,69.93
2024-03-12T04:56:48.203Z,69.93
2024-03-12T04:57:49.163Z,67.35
2024-03-12T04:58:48.210Z,69.77
2024-03-12T04:59:48.172Z,72.99
2024-03-12T05:00:48.244Z,67.51
2024-03-12T05:01:48.193Z,70.90
2024-03-12T05:02:48.096Z,69.77
2024-03-12T05:03:48.113Z,71.38
2024-03-12T05:04:48.084Z,70.58
2024-03-12T05:05:48.048Z,72.19
2024-03-12T05:06:48.102Z,71.22
2024-03-12T05:07:48.051Z,73.80
2024-03-12T05:08:48.014Z,71.38
2024-03-12T05:09:48.042Z,70.25
2024-03-12T05:10:48.047Z,73.64
2024-03-12T05:11:48.027Z,73.32
2024-03-12T05:12:48.012Z,72.03
2024-03-12T05:13:47.983Z,75.89
2024-03-12T05:14:47.961Z,70.58
2024-03-12T05:15:47.961Z,70.58
2024-03-12T05:16:47.939Z,72.67
2024-03-12T05:17:47.949Z,73.96
2024-03-12T05:18:47.961Z,74.77
2024-03-12T05:19:47.896Z,73.32
2024-03-12T05:20:47.896Z,74.12
2024-03-12T05:21:47.909Z,73.96
2024-03-12T05:22:47.874Z,73.32
2024-03-12T05:23:47.889Z,72.99
2024-03-12T05:24:47.870Z,72.35
2024-03-12T05:25:47.976Z,73.32
2024-03-12T05:26:47.845Z,75.09
2024-03-12T05:27:47.848Z,74.93
2024-03-12T05:28:47.812Z,73.15
2024-03-12T05:29:47.797Z,74.44
2024-03-12T05:30:47.820Z,77.34
2024-03-12T05:31:47.795Z,74.28
2024-03-12T05:32:47.838Z,71.70
2024-03-12T05:33:47.771Z,76.70
2024-03-12T05:34:47.737Z,75.25
2024-03-12T05:35:47.757Z,74.28
2024-03-12T05:36:47.798Z,75.09
2024-03-12T05:37:47.722Z,77.67
2024-03-12T05:38:47.700Z,72.03
2024-03-12T05:39:47.773Z,73.15
2024-03-12T05:40:47.768Z,74.60
2024-03-12T05:41:47.686Z,73.32
2024-03-12T05:42:47.733Z,73.32
2024-03-12T05:43:50.276Z,74.77
2024-03-12T05:44:48.651Z,77.02
2024-03-12T05:45:47.726Z,76.38
2024-03-12T05:46:47.778Z,75.09
2024-03-12T05:47:47.726Z,72.83
2024-03-12T05:48:47.603Z,74.60
2024-03-12T05:49:47.612Z,71.87
2024-03-12T05:50:47.593Z,73.48
2024-03-12T05:51:47.622Z,73.32
2024-03-12T05:52:47.577Z,73.64
2024-03-12T05:53:47.546Z,72.19
2024-03-12T05:54:47.598Z,72.35
2024-03-12T05:55:47.558Z,73.64
2024-03-12T05:56:47.516Z,72.51
2024-03-12T05:57:47.540Z,72.19
2024-03-12T05:58:47.959Z,68.00
2024-03-12T05:59:47.470Z,70.09
2024-03-12T06:00:47.483Z,73.96
2024-03-12T06:01:47.513Z,70.58
2024-03-12T06:02:47.480Z,67.03
2024-03-12T06:03:47.651Z,72.51
2024-03-12T06:04:47.458Z,73.64
2024-03-12T06:05:47.444Z,72.67
2024-03-12T06:06:47.403Z,70.90
2024-03-12T06:07:47.400Z,73.32
2024-03-12T06:08:47.423Z,74.44
2024-03-12T06:09:47.417Z,75.41
2024-03-12T06:10:47.366Z,72.19
2024-03-12T06:11:47.385Z,75.09
2024-03-12T06:12:47.370Z,74.93
2024-03-12T06:13:47.421Z,73.48
2024-03-12T06:14:47.331Z,76.22
2024-03-12T06:15:47.512Z,72.99
2024-03-12T06:16:47.297Z,75.09
2024-03-12T06:17:48.139Z,72.35
2024-03-12T06:18:47.389Z,73.15
2024-03-12T06:19:47.391Z,74.12
2024-03-12T06:20:47.261Z,75.09
2024-03-12T06:21:47.296Z,71.70
2024-03-12T06:22:47.212Z,73.96
2024-03-12T06:23:47.198Z,75.09
2024-03-12T06:24:47.260Z,77.34
2024-03-12T06:25:47.244Z,74.28
2024-03-12T06:26:47.181Z,72.99
2024-03-12T06:27:47.186Z,73.48
2024-03-12T06:28:47.220Z,75.57
2024-03-12T06:29:47.163Z,74.60
2024-03-12T06:30:47.271Z,73.96
2024-03-12T06:31:47.167Z,73.64
2024-03-12T06:32:47.134Z,75.09
2024-03-12T06:33:47.161Z,75.25
2024-03-12T06:34:48.751Z,72.03
2024-03-12T06:35:48.106Z,73.48
2024-03-12T06:36:47.139Z,76.22
2024-03-12T06:37:47.081Z,74.93
2024-03-12T06:38:47.062Z,77.18
2024-03-12T06:39:47.130Z,73.96
2024-03-12T06:40:47.076Z,70.74
2024-03-12T06:41:47.028Z,70.58
2024-03-12T06:42:47.040Z,76.05
2024-03-12T06:43:47.039Z,74.12
2024-03-12T06:44:46.988Z,69.93
2024-03-12T06:45:47.121Z,73.64
2024-03-12T06:46:46.985Z,74.28
2024-03-12T06:47:47.014Z,76.05
2024-03-12T06:48:46.968Z,74.28
2024-03-12T06:49:46.945Z,72.67
2024-03-12T06:50:47.230Z,74.44
2024-03-12T06:51:47.016Z,74.60
2024-03-12T06:52:46.942Z,72.35
2024-03-12T06:53:46.915Z,75.41
2024-03-12T06:54:46.916Z,72.99
2024-03-12T06:55:47.033Z,75.25
2024-03-12T06:56:47.021Z,74.44
2024-03-12T06:57:46.942Z,71.87
2024-03-12T06:58:47.019Z,71.87
2024-03-12T06:59:46.847Z,71.22
2024-03-12T07:00:46.874Z,72.99
2024-03-12T07:01:46.899Z,71.70
2024-03-12T07:02:46.935Z,73.15
2024-03-12T07:03:49.093Z,74.28
2024-03-12T07:04:46.808Z,72.51
2024-03-12T07:05:46.774Z,71.70
2024-03-12T07:06:46.810Z,71.87
2024-03-12T07:07:46.780Z,72.51
2024-03-12T07:08:46.774Z,74.60
2024-03-12T07:09:46.786Z,73.32
2024-03-12T07:10:47.144Z,73.96
2024-03-12T07:11:46.716Z,75.41
2024-03-12T07:12:46.739Z,69.77
2024-03-12T07:13:46.695Z,70.74
2024-03-12T07:14:46.843Z,72.83
2024-03-12T07:15:46.795Z,73.15
2024-03-12T07:16:46.683Z,71.06
2024-03-12T07:17:46.690Z,74.12
2024-03-12T07:18:46.655Z,71.22
2024-03-12T07:19:46.672Z,72.35
2024-03-12T07:20:47.599Z,73.64
2024-03-12T07:21:46.635Z,73.64
2024-03-12T07:22:47.065Z,70.09
2024-03-12T07:23:46.715Z,71.70
2024-03-12T07:24:46.609Z,72.99
2024-03-12T07:25:46.586Z,71.54
2024-03-12T07:26:46.540Z,74.12
2024-03-12T07:27:46.633Z,71.38
2024-03-12T07:28:46.579Z,70.25
2024-03-12T07:29:46.503Z,73.48
2024-03-12T07:30:46.589Z,71.87
2024-03-12T07:31:46.580Z,71.06
2024-03-12T07:32:46.542Z,71.70
2024-03-12T07:33:46.512Z,75.09
2024-03-12T07:34:46.466Z,70.74
2024-03-12T07:35:46.448Z,70.25
2024-03-12T07:36:46.475Z,74.60
2024-03-12T07:37:46.459Z,70.90
2024-03-12T07:38:46.423Z,73.48
2024-03-12T07:39:46.405Z,72.51
2024-03-12T07:40:46.403Z,70.09
2024-03-12T07:41:46.392Z,69.77
2024-03-12T07:42:46.416Z,68.80
2024-03-12T07:43:46.385Z,69.77
2024-03-12T07:44:46.339Z,72.99
2024-03-12T07:45:46.356Z,71.22
2024-03-12T07:46:46.306Z,69.45
2024-03-12T07:47:46.363Z,71.38
2024-03-12T07:48:46.400Z,70.09
2024-03-12T07:49:46.301Z,68.16
2024-03-12T07:50:46.313Z,72.67
2024-03-12T07:51:46.280Z,69.77
2024-03-12T07:52:46.260Z,71.06
2024-03-12T07:53:46.273Z,70.74
2024-03-12T07:54:46.272Z,72.67
2024-03-12T07:55:46.217Z,73.32
2024-03-12T07:56:46.285Z,72.51
2024-03-12T07:57:46.282Z,70.58
2024-03-12T07:58:46.185Z,67.84
2024-03-12T07:59:46.183Z,72.03
2024-03-12T08:00:47.188Z,72.99
2024-03-12T08:01:46.192Z,71.38
2024-03-12T08:02:46.133Z,69.45
2024-03-12T08:03:46.284Z,71.70
2024-03-12T08:04:46.137Z,70.09
2024-03-12T08:05:46.132Z,71.70
2024-03-12T08:06:46.225Z,70.09
2024-03-12T08:07:46.236Z,67.68
2024-03-12T08:08:46.161Z,68.48
2024-03-12T08:09:46.150Z,71.06
2024-03-12T08:10:46.048Z,72.99
2024-03-12T08:11:46.086Z,71.54
2024-03-12T08:12:46.054Z,70.90
2024-03-12T08:13:46.056Z,70.25
2024-03-12T08:14:46.064Z,69.13
2024-03-12T08:15:46.059Z,70.90
2024-03-12T08:16:46.040Z,72.99
2024-03-12T08:17:48.209Z,70.25
2024-03-12T08:18:47.055Z,71.38
2024-03-12T08:19:46.207Z,68.16
2024-03-12T08:20:45.971Z,71.22
2024-03-12T08:21:46.114Z,69.93
2024-03-12T08:22:45.947Z,69.61
2024-03-12T08:23:45.957Z,73.48
2024-03-12T08:24:46.056Z,64.61
2024-03-12T08:25:55.204Z,69.45
2024-03-12T08:26:47.922Z,72.03
2024-03-12T08:27:45.931Z,70.58
2024-03-12T08:28:45.839Z,64.29
2024-03-12T08:29:45.885Z,65.58
2024-03-12T08:30:45.943Z,72.83
2024-03-12T08:31:51.703Z,64.61
2024-03-12T08:32:46.868Z,64.13
2024-03-12T08:33:45.883Z,68.64
2024-03-12T08:34:45.789Z,70.25
2024-03-12T08:35:45.904Z,69.93
2024-03-12T08:36:45.890Z,69.13
2024-03-12T08:37:45.843Z,70.74
2024-03-12T08:38:45.845Z,72.67
2024-03-12T08:39:45.894Z,70.58
2024-03-12T08:40:45.811Z,70.42
2024-03-12T08:41:45.767Z,69.93
2024-03-12T08:42:54.021Z,71.70
2024-03-12T08:43:46.755Z,69.61
2024-03-12T08:44:45.727Z,70.90
2024-03-12T08:45:45.731Z,68.16
2024-03-12T08:46:45.702Z,67.84
2024-03-12T08:47:45.694Z,69.93
2024-03-12T08:48:45.685Z,70.90
2024-03-12T08:49:45.662Z,68.32
2024-03-12T08:50:45.658Z,71.22
2024-03-12T08:51:45.752Z,68.32
2024-03-12T08:52:45.620Z,69.45
2024-03-12T08:53:45.603Z,69.13
2024-03-12T08:54:45.715Z,68.00
2024-03-12T08:55:45.622Z,70.09
2024-03-12T08:56:45.609Z,69.45
2024-03-12T08:57:45.618Z,66.23
2024-03-12T08:58:45.571Z,70.25
2024-03-12T08:59:45.547Z,67.03
2024-03-12T09:00:45.695Z,69.13
2024-03-12T09:01:45.912Z,72.67
2024-03-12T09:02:45.515Z,71.06
2024-03-12T09:03:47.056Z,71.22
2024-03-12T09:04:46.590Z,68.48
2024-03-12T09:05:45.513Z,70.74
2024-03-12T09:06:45.538Z,70.09
2024-03-12T09:07:45.449Z,72.51
2024-03-12T09:08:45.441Z,71.54
2024-03-12T09:09:45.627Z,69.77
2024-03-12T09:10:45.505Z,65.26
2024-03-12T09:11:45.449Z,66.71
2024-03-12T09:12:45.437Z,68.96
2024-03-12T09:13:45.393Z,70.42
2024-03-12T09:14:45.403Z,70.42
2024-03-12T09:15:45.421Z,71.22
2024-03-12T09:16:45.439Z,70.90
2024-03-12T09:17:45.374Z,68.96
2024-03-12T09:18:45.454Z,65.58
2024-03-12T09:19:45.328Z,67.03
2024-03-12T09:20:45.325Z,66.23
2024-03-12T09:21:45.322Z,71.38
2024-03-12T09:22:45.279Z,68.96
2024-03-12T09:23:53.206Z,68.32
2024-03-12T09:24:46.327Z,69.29
2024-03-12T09:25:45.274Z,70.09
2024-03-12T09:26:45.346Z,71.70
2024-03-12T09:27:45.248Z,72.19
2024-03-12T09:28:46.486Z,71.70
2024-03-12T09:29:45.256Z,73.96
2024-03-12T09:30:45.266Z,71.22
2024-03-12T09:31:45.212Z,70.09
2024-03-12T09:32:45.282Z,70.25
2024-03-12T09:33:45.206Z,73.80
2024-03-12T09:34:45.184Z,71.38
2024-03-12T09:35:45.171Z,69.13
2024-03-12T09:36:45.187Z,70.90
2024-03-12T09:37:45.194Z,69.45
2024-03-12T09:38:45.460Z,70.42
2024-03-12T09:39:45.220Z,66.87
2024-03-12T09:40:45.140Z,69.45
2024-03-12T09:41:45.085Z,68.48
2024-03-12T09:42:45.159Z,69.93
2024-03-12T09:43:45.331Z,71.06
2024-03-12T09:44:45.049Z,70.90
2024-03-12T09:45:45.129Z,69.13
2024-03-12T09:46:45.031Z,70.42
2024-03-12T09:47:45.016Z,69.93
2024-03-12T09:48:45.068Z,71.06
2024-03-12T09:49:45.052Z,72.19
2024-03-12T09:50:44.977Z,74.28
2024-03-12T09:51:45.117Z,71.06
2024-03-12T09:52:45.000Z,68.96
2024-03-12T09:53:44.982Z,68.16
2024-03-12T09:54:44.992Z,71.54
2024-03-12T09:55:44.974Z,72.03
2024-03-12T09:56:44.908Z,69.93
2024-03-12T09:57:45.648Z,71.70
2024-03-12T09:58:45.029Z,72.35
2024-03-12T09:59:44.917Z,72.19
2024-03-12T10:00:44.930Z,69.45
2024-03-12T10:01:44.992Z,68.64
2024-03-12T10:02:44.886Z,68.80
2024-03-12T10:03:44.933Z,71.22
2024-03-12T10:04:44.843Z,70.74
2024-03-12T10:05:44.879Z,70.42
2024-03-12T10:06:44.848Z,71.54
2024-03-12T10:07:44.811Z,70.74
2024-03-12T10:08:44.847Z,70.74
2024-03-12T10:09:44.815Z,69.77
2024-03-12T10:10:44.861Z,69.61
2024-03-12T10:11:44.787Z,69.61
2024-03-12T10:12:44.796Z,67.68
2024-03-12T10:13:44.788Z,69.13
2024-03-12T10:14:44.763Z,70.42
2024-03-12T10:15:44.752Z,70.42
2024-03-12T10:16:44.749Z,71.22
2024-03-12T10:17:44.753Z,70.09
2024-03-12T10:18:44.685Z,72.67
2024-03-12T10:19:44.764Z,72.03
2024-03-12T10:20:44.693Z,68.96
2024-03-12T10:21:44.708Z,65.10
2024-03-12T10:22:44.712Z,68.48
2024-03-12T10:23:44.703Z,70.09
2024-03-12T10:24:44.686Z,70.42
2024-03-12T10:25:44.619Z,68.96
2024-03-12T10:26:44.638Z,65.10
2024-03-12T10:27:51.260Z,70.25
2024-03-12T10:28:47.189Z,71.06
2024-03-12T10:29:44.641Z,70.90
2024-03-12T10:30:44.631Z,69.29
2024-03-12T10:31:44.650Z,67.51
2024-03-12T10:32:44.598Z,70.74
2024-03-12T10:33:44.559Z,69.93
2024-03-12T10:34:44.566Z,69.61
2024-03-12T10:35:44.547Z,70.74
2024-03-12T10:36:44.572Z,70.25
2024-03-12T10:37:44.495Z,64.13
2024-03-12T10:38:44.512Z,69.13
2024-03-12T10:39:44.489Z,67.03
2024-03-12T10:40:44.491Z,68.80
2024-03-12T10:41:44.559Z,67.35
2024-03-12T10:42:44.499Z,68.16
2024-03-12T10:43:44.455Z,70.25
2024-03-12T10:44:44.440Z,69.13
2024-03-12T10:45:44.473Z,69.29
2024-03-12T10:46:44.880Z,71.06
2024-03-12T10:47:44.488Z,69.93
2024-03-12T10:48:44.471Z,71.70
2024-03-12T10:49:44.404Z,66.55
2024-03-12T10:50:44.379Z,70.25
2024-03-12T10:51:44.572Z,70.42
2024-03-12T10:52:44.369Z,70.09
2024-03-12T10:53:44.408Z,68.80
2024-03-12T10:54:48.461Z,68.80
2024-03-12T10:55:46.558Z,69.61
2024-03-12T10:56:44.365Z,69.77
2024-03-12T10:57:44.474Z,69.61
2024-03-12T10:58:44.308Z,67.51
2024-03-12T10:59:44.370Z,61.23
2024-03-12T11:00:44.364Z,69.77
2024-03-12T11:01:44.368Z,66.39
2024-03-12T11:02:44.303Z,71.06
2024-03-12T11:03:44.428Z,70.90
2024-03-12T11:04:44.243Z,69.13
2024-03-12T11:05:44.259Z,67.68
2024-03-12T11:06:44.995Z,68.32
2024-03-12T11:07:44.242Z,68.32
2024-03-12T11:08:44.205Z,70.25
2024-03-12T11:09:44.282Z,71.22
2024-03-12T11:10:44.229Z,69.29
2024-03-12T11:11:44.174Z,69.93
2024-03-12T11:12:44.255Z,69.29
2024-03-12T11:13:44.134Z,71.70
2024-03-12T11:14:44.154Z,68.64
2024-03-12T11:15:44.252Z,72.19
2024-03-12T11:16:44.156Z,69.13
2024-03-12T11:17:44.150Z,73.15
2024-03-12T11:18:44.467Z,70.25
2024-03-12T11:19:44.102Z,71.54
2024-03-12T11:20:44.096Z,67.19
2024-03-12T11:21:44.123Z,72.03
2024-03-12T11:22:45.027Z,68.80
2024-03-12T11:23:44.069Z,70.90
2024-03-12T11:24:44.330Z,64.78
2024-03-12T11:25:45.290Z,68.16
2024-03-12T11:26:44.005Z,70.42
2024-03-12T11:27:44.058Z,69.77
2024-03-12T11:28:43.993Z,69.61
2024-03-12T11:29:44.038Z,70.74
2024-03-12T11:30:44.038Z,70.74
2024-03-12T11:31:43.966Z,69.13
2024-03-12T11:32:44.011Z,72.83
2024-03-12T11:33:44.033Z,71.38
2024-03-12T11:34:44.941Z,70.58
2024-03-12T11:35:43.966Z,72.03
2024-03-12T11:36:43.960Z,69.93
2024-03-12T11:37:43.894Z,67.35
2024-03-12T11:38:43.915Z,68.00
2024-03-12T11:39:43.953Z,69.61
2024-03-12T11:40:43.899Z,71.38
2024-03-12T11:41:43.850Z,71.06
2024-03-12T11:42:43.964Z,71.70
2024-03-12T11:43:43.855Z,70.25
2024-03-12T11:44:43.836Z,67.03
2024-03-12T11:45:43.923Z,69.13
2024-03-12T11:46:43.866Z,71.06
2024-03-12T11:47:43.980Z,71.70
2024-03-12T11:48:43.836Z,71.70
2024-03-12T11:49:43.796Z,68.96
2024-03-12T11:50:43.858Z,70.58
2024-03-12T11:51:43.812Z,68.00
2024-03-12T11:52:43.782Z,68.48
2024-03-12T11:53:43.765Z,71.38
2024-03-12T11:54:43.756Z,69.45
2024-03-12T11:55:43.762Z,70.09
2024-03-12T11:56:43.775Z,69.45
2024-03-12T11:57:43.754Z,68.64
2024-03-12T11:58:43.693Z,69.13
2024-03-12T11:59:43.724Z,72.19
2024-03-12T12:00:43.794Z,71.38
2024-03-12T12:01:43.729Z,68.00
2024-03-12T12:02:43.739Z,69.29
2024-03-12T12:03:43.683Z,70.42
2024-03-12T12:04:44.463Z,71.06
2024-03-12T12:05:43.622Z,71.70
2024-03-12T12:06:43.676Z,69.61
2024-03-12T12:07:43.813Z,71.54
2024-03-12T12:08:50.386Z,70.42
2024-03-12T12:09:44.639Z,69.45
2024-03-12T12:10:43.626Z,72.35
2024-03-12T12:11:43.602Z,72.51
2024-03-12T12:12:43.600Z,72.19
2024-03-12T12:13:43.530Z,69.93
2024-03-12T12:14:43.574Z,72.03
2024-03-12T12:15:43.580Z,70.74
2024-03-12T12:16:43.516Z,73.96
2024-03-12T12:17:43.511Z,73.80
2024-03-12T12:18:43.527Z,69.61
2024-03-12T12:19:43.726Z,72.67
2024-03-12T12:20:43.527Z,74.12
2024-03-12T12:21:43.506Z,72.35
2024-03-12T12:22:43.502Z,71.06
2024-03-12T12:23:43.482Z,72.19
2024-03-12T12:24:43.503Z,72.67
2024-03-12T12:25:43.437Z,74.28
2024-03-12T12:26:44.415Z,72.19
2024-03-12T12:27:43.396Z,74.12
2024-03-12T12:28:43.423Z,72.99
2024-03-12T12:29:43.393Z,70.42
2024-03-12T12:30:43.444Z,73.32
2024-03-12T12:31:43.640Z,72.67
2024-03-12T12:32:43.424Z,73.48
2024-03-12T12:33:43.467Z,70.74
2024-03-12T12:34:43.400Z,72.51
2024-03-12T12:35:43.353Z,72.19
2024-03-12T12:36:43.516Z,70.42
2024-03-12T12:37:43.320Z,68.64
2024-03-12T12:38:44.498Z,72.51
2024-03-12T12:39:51.884Z,70.25
2024-03-12T12:40:45.331Z,73.32
2024-03-12T12:41:43.289Z,72.19
2024-03-12T12:42:43.298Z,73.48
2024-03-12T12:43:43.279Z,69.45
2024-03-12T12:44:43.272Z,72.99
2024-03-12T12:45:43.295Z,74.44
2024-03-12T12:46:43.251Z,73.48
2024-03-12T12:47:43.325Z,71.22
2024-03-12T12:48:44.166Z,71.38
2024-03-12T12:49:43.213Z,70.74
2024-03-12T12:50:43.179Z,73.64
2024-03-12T12:51:43.390Z,75.09
2024-03-12T12:52:43.179Z,70.09